Latest Weather Observations for Coonamble

IDN60801

Issued at 6:05 pm EDT Friday 27 February 2015 (issued every 30 minutes, with the page automatically refreshed every 10 minutes)

About weather observations | Map of weather stations | Latest weather observations for NSW | Other Formats
Station Details ID: 051161 Name: COONAMBLE AIRPORT AWS Lat: -30.98 Lon: 148.38 Height: 181.3 m
Data from the previous 72 hours. | See also: Recent months at Coonamble
Date/Time
EDT
Temp
°C
App
Temp
°C
Dew
Point
Rel
Hum
%
Delta-T
°C
Wind Press
QNH
hPa
Press
MSL
hPa
Rain
since 9 am
mm
Dir
 
Spd
km/h
Gust
km/h
Spd
kts
Gust
kts
27/06:00pm 33.5 30.4 8.9 22 14.0 SSW 15 22 8 12 1005.0 1003.9 0.0
27/05:30pm 33.9 31.7 7.8 20 14.7 SE 9 15 5 8 1005.0 1003.9 0.0
27/05:00pm 34.2 32.4 9.4 22 14.3 WSW 9 19 5 10 1005.0 1003.9 0.0
27/04:30pm 33.3 31.1 9.4 23 13.7 S 11 17 6 9 1005.3 1004.3 0.0
27/04:00pm 32.3 30.9 10.9 27 12.5 SSE 9 15 5 8 1005.4 1004.4 0.0
27/03:30pm 32.0 30.5 10.7 27 12.4 SSE 9 20 5 11 1005.9 1004.8 0.0
27/03:00pm 33.1 31.9 11.6 27 12.8 ENE 9 20 5 11 1006.2 1005.1 0.0
27/02:30pm 31.2 29.8 13.5 34 10.7 ESE 13 22 7 12 1006.8 1005.7 0.0
27/02:00pm 31.7 30.6 13.0 32 11.3 SSE 11 20 6 11 1007.2 1006.1 0.0
27/01:30pm 31.7 30.6 15.2 36 10.3 S 15 20 8 11 1007.5 1006.4 0.0
27/01:00pm 32.1 31.9 15.6 37 10.3 E 11 28 6 15 1007.9 1006.8 0.0
27/12:30pm 29.8 30.5 16.2 43 8.5 S 7 11 4 6 1008.4 1007.3 0.0
27/12:00pm 28.5 29.9 16.4 48 7.6 ENE 4 7 2 4 1008.9 1007.8 0.0
27/11:30am 28.4 29.1 17.0 50 7.2 NW 9 17 5 9 1009.2 1008.1 0.0
27/11:00am 28.1 28.7 16.7 50 7.2 ENE 9 19 5 10 1009.2 1008.1 0.0
27/10:30am 27.4 27.6 16.7 52 6.7 N 11 17 6 9 1009.2 1008.1 0.0
27/10:00am 27.2 27.5 17.1 54 6.4 NE 11 19 6 10 1009.2 1008.1 0.0
27/09:30am 25.8 25.7 16.9 58 5.6 ENE 13 20 7 11 1009.2 1008.1 0.0
27/09:00am 25.2 25.7 17.4 62 4.9 E 11 15 6 8 1009.0 1007.9 0.4
27/08:30am 23.9 24.8 17.6 68 4.0 ESE 9 17 5 9 1008.9 1007.8 0.4
27/08:00am 21.9 23.0 18.1 79 2.4 ESE 9 13 5 7 1008.5 1007.4 0.4
27/07:30am 20.7 21.6 18.5 87 1.4 E 11 13 6 7 1008.1 1007.0 0.4
27/07:00am 20.1 21.1 18.6 91 0.9 E 11 13 6 7 1007.6 1006.5 0.4
27/06:30am 20.2 20.7 18.3 89 1.2 E 13 17 7 9 1006.9 1005.8 0.4
27/06:00am 20.3 20.7 18.2 88 1.3 E 13 17 7 9 1006.7 1005.6 0.4
27/05:30am 20.3 21.1 18.2 88 1.3 E 11 15 6 8 1006.5 1005.4 0.4
27/05:00am 20.5 21.2 17.9 85 1.6 E 11 13 6 7 1006.4 1005.3 0.4
27/04:30am 20.9 21.6 17.9 83 1.9 ESE 11 13 6 7 1006.5 1005.4 0.4
27/04:00am 21.1 21.7 17.7 81 2.1 E 11 15 6 8 1006.4 1005.3 0.4
27/03:30am 21.4 21.6 17.6 79 2.4 ENE 13 19 7 10 1006.6 1005.5 0.4
27/03:00am 21.6 21.7 17.4 77 2.6 ENE 13 17 7 9 1006.6 1005.5 0.4
27/02:30am 21.8 21.5 17.4 76 2.7 ENE 15 17 8 9 1006.6 1005.5 0.4
27/02:00am 22.7 22.6 17.8 74 3.1 ENE 15 22 8 12 1006.7 1005.6 0.4
27/01:30am 23.7 24.1 18.1 71 3.5 E 13 26 7 14 1007.0 1005.9 0.4
27/01:00am 22.7 23.8 18.9 79 2.4 E 11 15 6 8 1006.9 1005.8 0.4
27/12:30am 23.2 23.9 18.9 77 2.7 E 13 17 7 9 1007.0 1005.9 0.4
27/12:00am 24.1 24.7 17.8 68 4.0 SSE 11 13 6 7 1006.8 1005.7 0.4
 
Date/Time
EDT
Temp
°C
App
Temp
°C
Dew
Point
Rel
Hum
%
Delta-T
°C
Wind Press
QNH
hPa
Press
MSL
hPa
Rain
since 9 am
mm
Dir
 
Spd
km/h
Gust
km/h
Spd
kts
Gust
kts
26/11:30pm 24.0 24.7 18.0 69 3.8 S 11 13 6 7 1006.8 1005.7 0.4
26/11:00pm 25.3 25.9 18.5 66 4.4 SSE 13 15 7 8 1006.7 1005.6 0.4
26/10:30pm 25.3 26.1 18.2 64 4.5 S 11 15 6 8 1006.4 1005.3 0.4
26/10:00pm 25.9 26.8 18.3 63 4.9 SSE 11 13 6 7 1006.2 1005.1 0.4
26/09:30pm 26.7 27.6 17.5 57 5.8 SSE 9 13 5 7 1005.6 1004.6 0.4
26/09:00pm 28.0 27.8 16.6 50 7.2 SSE 13 15 7 8 1005.2 1004.1 0.4
26/08:30pm 28.8 28.9 16.4 47 7.8 SSE 11 15 6 8 1004.7 1003.6 0.4
26/08:00pm 29.9 28.2 14.8 39 9.3 S 17 20 9 11 1004.2 1003.1 0.4
26/07:30pm 31.3 29.3 14.0 35 10.5 S 17 22 9 12 1003.8 1002.7 0.4
26/07:00pm 32.3 30.5 14.4 33 11.1 SSW 17 22 9 12 1003.3 1002.2 0.4
26/06:30pm 32.6 29.9 14.7 34 11.1 S 22 30 12 16 1003.2 1002.1 0.4
26/06:00pm 32.6 30.6 15.6 36 10.7 S 20 28 11 15 1003.1 1002.0 0.4
26/05:30pm 31.5 27.8 15.0 36 10.2 S 28 33 15 18 1003.2 1002.1 0.4
26/05:00pm 34.5 32.1 13.9 29 12.7 SW 19 28 10 15 1003.0 1001.9 0.4
26/04:30pm 34.4 33.9 13.8 29 12.7 SSW 9 15 5 8 1003.2 1002.1 0.4
26/04:00pm 33.3 33.7 15.3 34 11.3 E 7 11 4 6 1003.5 1002.4 0.4
26/03:30pm 32.6 33.1 15.1 34 10.9 NNE 6 11 3 6 1004.0 1002.9 0.4
26/03:00pm 32.4 31.9 15.8 36 10.5 ENE 13 20 7 11 1004.5 1003.4 0.4
26/02:30pm 32.6 32.2 15.1 34 10.9 N 11 24 6 13 1005.1 1004.0 0.4
26/02:00pm 32.2 32.0 15.7 37 10.4 N 11 19 6 10 1005.6 1004.6 0.4
26/01:30pm 32.2 32.5 16.1 38 10.2 NW 9 20 5 11 1006.2 1005.1 0.4
26/01:00pm 31.9 31.3 16.6 39 9.7 N 15 28 8 15 1006.6 1005.5 0.4
26/12:30pm 30.0 28.9 16.4 44 8.6 NNW 17 32 9 17 1007.3 1006.2 0.4
26/12:00pm 29.9 28.9 16.7 45 8.4 N 17 24 9 13 1007.7 1006.6 0.4
26/11:30am 29.2 28.1 17.7 50 7.4 NNE 20 33 11 18 1008.1 1007.0 0.2
26/11:00am 28.6 27.0 17.5 51 7.1 NNE 22 35 12 19 1008.4 1007.3 0.2
26/10:30am 27.2 25.8 17.9 56 5.9 NNE 22 32 12 17 1008.8 1007.7 0.2
26/10:00am 26.8 25.5 18.1 59 5.6 NNE 22 33 12 18 1008.8 1007.7 0.2
26/09:30am 25.3 23.9 18.7 67 4.2 NNE 24 30 13 16 1008.9 1007.8 0.0
26/09:00am 24.5 23.4 18.7 70 3.7 NNE 22 37 12 20 1008.8 1007.7 2.2
26/08:30am 23.0 22.3 19.4 80 2.3 NE 22 30 12 16 1008.4 1007.3 2.2
26/08:00am 22.5 22.9 19.9 85 1.7 NE 17 26 9 14 1008.4 1007.3 2.0
26/07:30am 21.4 21.2 19.3 88 1.3 NE 19 24 10 13 1008.1 1007.0 2.0
26/07:00am 21.1 21.2 19.2 89 1.2 NE 17 28 9 15 1007.9 1006.8 1.8
26/06:30am 20.7 21.0 19.5 93 0.8 ENE 17 20 9 11 1007.9 1006.8 1.8
26/06:00am 20.4 21.1 19.6 95 0.5 ENE 15 19 8 10 1007.9 1006.8 1.6
26/05:30am 20.3 21.0 19.6 96 0.4 ENE 15 19 8 10 1007.9 1006.8 1.6
26/05:00am 20.4 20.6 19.4 94 0.6 ENE 17 20 9 11 1007.9 1006.8 1.4
26/04:30am 20.9 21.3 19.0 89 1.2 ENE 15 20 8 11 1008.1 1007.0 1.4
26/04:00am 21.1 21.5 18.9 87 1.4 ENE 15 20 8 11 1008.1 1007.0 1.2
26/03:30am 21.0 21.0 18.2 84 1.8 ENE 15 20 8 11 1008.2 1007.1 1.2
26/03:00am 20.9 20.4 17.9 83 1.9 ENE 17 22 9 12 1008.4 1007.3 1.0
26/02:30am 20.6 20.6 18.0 85 1.6 E 15 19 8 10 1008.4 1007.3 0.8
26/02:00am 20.8 20.7 17.8 83 1.9 E 15 20 8 11 1008.5 1007.4 0.8
26/01:30am 20.9 20.1 17.9 83 1.9 E 19 24 10 13 1008.8 1007.7 0.6
26/01:00am 20.9 20.0 17.7 82 2.0 E 19 24 10 13 1009.2 1008.1 0.6
26/12:30am 20.8 19.9 17.8 83 1.9 E 19 24 10 13 1009.4 1008.3 0.6
26/12:00am 20.9 20.0 17.7 82 2.0 E 19 26 10 14 1009.7 1008.6 0.4
 
Date/Time
EDT
Temp
°C
App
Temp
°C
Dew
Point
Rel
Hum
%
Delta-T
°C
Wind Press
QNH
hPa
Press
MSL
hPa
Rain
since 9 am
mm
Dir
 
Spd
km/h
Gust
km/h
Spd
kts
Gust
kts
25/11:30pm 21.2 19.2 17.4 79 2.4 ENE 24 35 13 19 1009.3 1008.2 0.4
25/11:00pm 21.3 20.4 18.3 83 1.9 E 20 26 11 14 1009.7 1008.6 0.4
25/10:48pm 21.8 19.2 17.8 78 2.5 E 28 56 15 30 1009.8 1008.7 0.4
25/10:30pm 21.9 18.6 17.9 78 2.5 E 32 44 17 24 1009.7 1008.6 0.2
25/10:00pm 21.8 20.3 20.3 91 1.0 ENE 28 37 15 20 1009.4 1008.3 0.2
25/09:30pm 22.0 20.6 19.7 87 1.5 E 26 33 14 18 1009.0 1007.9 0.2
25/09:00pm 22.8 21.8 17.9 74 3.1 ESE 20 32 11 17 1009.2 1008.1 0.2
25/08:30pm 23.1 21.4 18.2 74 3.1 E 24 35 13 19 1008.3 1007.2 0.2
25/08:00pm 23.8 23.7 19.5 77 2.8 ESE 19 24 10 13 1007.8 1006.7 0.0
25/07:30pm 23.9 24.1 19.4 76 2.9 SE 17 24 9 13 1007.5 1006.4 0.0
25/07:06pm 22.0 15.7 17.2 74 3.0 NW 46 109 25 59 1007.6 1006.5 0.0
25/07:03pm 19.7 12.6 13.9 69 3.4 W 44 109 24 59 1007.9 1006.8 0.0
25/07:01pm 21.2 15.9 16.2 73 3.0 WSW 39 100 21 54 1007.9 1006.8 0.0
25/07:00pm 23.4 20.1 18.3 73 3.2 WSW 33 54 18 29 1008.4 1007.3 0.0
25/06:57pm 25.6 22.4 17.3 60 5.2 W 30 54 16 29 1008.0 1006.9 0.0
25/06:55pm 28.1 24.9 15.4 46 7.8 WNW 26 48 14 26 1007.8 1006.7 0.0
25/06:30pm 30.8 27.7 12.2 32 11.0 N 20 28 11 15 1006.0 1004.9 0.0
25/06:00pm 30.5 26.1 12.9 34 10.5 N 28 39 15 21 1006.5 1005.4 0.0
25/05:40pm 32.9 29.8 14.5 33 11.4 NNW 24 41 13 22 1006.1 1005.0 0.0
25/05:30pm 35.4 34.1 12.4 25 13.9 ENE 11 19 6 10 1006.0 1004.9 0.0
25/05:00pm 34.5 32.9 12.8 27 13.2 E 13 19 7 10 1006.3 1005.2 0.0
25/04:30pm 34.2 31.4 12.5 27 13.1 SE 19 26 10 14 1006.5 1005.4 0.0
25/04:00pm 34.9 33.6 12.5 25 13.6 NE 11 17 6 9 1007.1 1006.0 0.0
25/03:30pm 36.8 35.1 13.5 24 14.4 NNE 15 26 8 14 1008.0 1006.9 0.0
25/03:00pm 35.0 33.9 13.2 27 13.3 NNE 11 22 6 12 1008.8 1007.7 0.0
25/02:30pm 34.8 32.9 13.0 26 13.3 NNE 15 20 8 11 1009.7 1008.6 0.0
25/02:00pm 34.5 32.9 13.9 29 12.7 NNE 15 24 8 13 1010.3 1009.3 0.0
25/01:30pm 32.9 31.5 13.5 30 11.8 ENE 13 22 7 12 1010.8 1009.8 0.0
25/01:00pm 32.2 30.6 13.9 33 11.2 NNE 15 24 8 13 1011.4 1010.4 0.0
25/12:30pm 29.9 28.6 13.6 36 9.8 NNE 13 20 7 11 1012.2 1011.1 0.0
25/12:00pm 31.4 29.6 14.5 35 10.4 NNE 17 24 9 13 1012.5 1011.4 0.0
25/11:30am 30.5 28.0 14.2 37 9.9 NNE 20 24 11 13 1012.9 1011.8 0.0
25/11:00am 29.4 27.7 14.8 41 8.9 NNE 17 28 9 15 1013.2 1012.1 0.0
25/10:30am 28.4 26.2 15.0 44 8.2 NE 20 32 11 17 1013.3 1012.2 0.0
25/10:00am 27.5 25.3 14.8 45 7.7 NE 20 30 11 16 1013.4 1012.3 0.0
25/09:30am 26.2 23.8 15.3 51 6.6 NE 22 32 12 17 1013.4 1012.3 0.0
25/09:00am 25.6 23.2 15.3 53 6.3 ENE 22 30 12 16 1013.6 1012.5 0.0
25/08:30am 24.8 22.4 15.4 56 5.7 ENE 22 30 12 16 1013.2 1012.1 0.0
25/08:00am 23.4 22.8 15.7 62 4.7 ENE 13 19 7 10 1013.0 1011.9 0.0
25/07:30am 22.1 21.1 15.5 66 4.0 ENE 15 19 8 10 1012.6 1011.5 0.0
25/07:00am 22.1 21.1 15.5 66 4.0 ENE 15 20 8 11 1012.4 1011.3 0.0
25/06:30am 22.4 21.4 15.5 65 4.2 ENE 15 20 8 11 1012.1 1011.0 0.0
25/06:00am 22.8 21.0 15.6 64 4.4 E 19 24 10 13 1011.4 1010.4 0.0
25/05:30am 23.4 21.4 15.5 61 4.8 E 20 26 11 14 1011.2 1010.2 0.0
25/05:00am 23.9 21.1 15.4 59 5.2 ENE 24 32 13 17 1011.1 1010.1 0.0
25/04:30am 24.1 22.2 15.3 58 5.3 E 19 24 10 13 1011.0 1010.0 0.0
25/04:00am 24.2 21.8 15.4 58 5.3 E 22 30 12 16 1010.9 1009.9 0.0
25/03:30am 24.4 22.3 15.1 56 5.6 E 20 30 11 16 1010.9 1009.9 0.0
25/03:00am 24.8 22.3 15.1 54 5.9 E 22 33 12 18 1011.0 1010.0 0.0
25/02:30am 25.2 23.1 15.2 54 6.1 E 20 30 11 16 1011.0 1010.0 0.0
25/02:00am 25.7 22.9 15.4 53 6.3 E 24 32 13 17 1011.0 1010.0 0.0
25/01:30am 26.2 22.6 15.3 51 6.6 E 28 41 15 22 1011.0 1010.0 0.0
25/01:00am 26.9 22.4 15.3 49 7.1 E 33 43 18 23 1011.3 1010.3 0.0
25/12:35am 27.5 23.9 15.2 47 7.5 E 28 46 15 25 1011.3 1010.3 0.0
25/12:30am 27.6 23.5 14.9 45 7.7 E 30 46 16 25 1011.4 1010.4 0.0
25/12:00am 28.5 26.0 14.0 41 8.8 E 20 35 11 19 1011.5 1010.5 0.0
 
Date/Time
EDT
Temp
°C
App
Temp
°C
Dew
Point
Rel
Hum
%
Delta-T
°C
Wind Press
QNH
hPa
Press
MSL
hPa
Rain
since 9 am
mm
Dir
 
Spd
km/h
Gust
km/h
Spd
kts
Gust
kts
24/11:30pm 28.8 25.6 13.1 38 9.3 E 22 30 12 16 1011.0 1010.0 0.0
24/11:00pm 29.1 25.8 12.9 37 9.6 E 22 32 12 17 1011.1 1010.1 0.0
24/10:30pm 29.8 25.1 13.1 36 10.0 E 30 43 16 23 1011.1 1010.1 0.0
24/10:00pm 30.6 26.1 13.8 35 10.2 ENE 30 39 16 21 1010.6 1009.6 0.0
24/09:34pm 31.8 27.1 12.1 30 11.7 ESE 28 46 15 25 1010.3 1009.3 0.0
24/09:30pm 32.0 27.8 11.2 28 12.2 ESE 24 39 13 21 1010.3 1009.3 0.0
24/09:00pm 32.3 30.1 10.9 27 12.5 SSE 13 28 7 15 1009.9 1008.8 0.0
24/08:30pm 32.5 30.2 10.5 26 12.8 SE 13 15 7 8 1009.2 1008.1 0.0
24/08:00pm 33.5 30.9 10.8 25 13.3 SSE 15 22 8 12 1009.0 1007.9 0.0
24/07:30pm 34.5 32.2 10.4 23 14.1 SSE 13 20 7 11 1008.6 1007.5 0.0
24/07:00pm 35.0 32.0 10.8 23 14.3 SSE 17 24 9 13 - - 0.0
24/06:30pm 34.9 32.8 11.3 24 14.0 SSW 13 17 7 9 - - 0.0

Other Formats:

Comma delimited format used in spreadsheet applications
http://www.bom.gov.au/fwo/IDN60801/IDN60801.95718.axf

JavaScript Object Notation format (JSON) in row-major order
http://www.bom.gov.au/fwo/IDN60801/IDN60801.95718.json